Time;durP1;ratioP1;P1;durP2;ratioP2;P2;SDS_P1;SDS_P2;PMS_P1;PMS_P2;Temp;Humidity;BMP_temperature;BMP_pressure;BME280_temperature;BME280_humidity;BME280_pressure;Samples;Min_cycle;Max_cycle;Signal;HPM_P1;HPM_P2
2022/08/24 00:00:35;;;;;;;15.35;14.02;;;;;;;;;;6245270;22;20086;-77
2022/08/24 00:03:01;;;;;;;16.63;14.90;;;;;;;;;;6244715;23;20010;-76
2022/08/24 00:05:27;;;;;;;15.45;13.85;;;;;;;;;;6245112;23;20024;-77
2022/08/24 00:07:54;;;;;;;15.60;14.05;;;;;;;;;;6244890;23;20036;-78
2022/08/24 00:10:22;;;;;;;16.75;15.02;;;;;;;;;;6244882;22;20024;-76
2022/08/24 00:12:49;;;;;;;18.92;14.77;;;;;;;;;;6245131;23;20005;-77
2022/08/24 00:15:16;;;;;;;17.35;15.57;;;;;;;;;;6244725;22;20015;-78
2022/08/24 00:17:43;;;;;;;15.50;13.90;;;;;;;;;;6244984;23;20063;-76
2022/08/24 00:20:10;;;;;;;16.05;14.45;;;;;;;;;;6244683;22;20004;-76
2022/08/24 00:22:37;;;;;;;15.68;14.02;;;;;;;;;;6245052;23;20005;-76
2022/08/24 00:25:04;;;;;;;15.90;14.40;;;;;;;;;;6244699;22;20004;-77
2022/08/24 00:27:30;;;;;;;16.58;14.88;;;;;;;;;;6244507;23;20023;-76
2022/08/24 00:29:56;;;;;;;16.15;14.60;;;;;;;;;;6244696;23;20370;-75
2022/08/24 00:32:22;;;;;;;17.15;15.35;;;;;;;;;;6244615;23;20007;-76
2022/08/24 00:34:48;;;;;;;16.27;14.77;;;;;;;;;;6244973;23;20004;-78
2022/08/24 00:37:15;;;;;;;17.48;15.77;;;;;;;;;;6244375;23;20018;-76
2022/08/24 00:39:41;;;;;;;18.38;16.45;;;;;;;;;;6244878;23;20004;-76
2022/08/24 00:42:07;;;;;;;17.30;15.70;;;;;;;;;;6244464;23;20011;-76
2022/08/24 00:44:33;;;;;;;17.33;15.60;;;;;;;;;;6244829;23;20004;-78
2022/08/24 00:47:01;;;;;;;18.58;16.77;;;;;;;;;;6244767;22;20097;-77
2022/08/24 00:49:46;;;;;;;17.98;16.13;;;;;;;;;;6244899;23;20442;-76
2022/08/24 00:52:15;;;;;;;17.10;15.50;;;;;;;;;;6244425;23;20058;-76
2022/08/24 00:54:43;;;;;;;18.10;15.77;;;;;;;;;;6244855;23;20008;-75
2022/08/24 00:57:10;;;;;;;19.27;17.23;;;;;;;;;;6244513;23;20435;-76
2022/08/24 00:59:39;;;;;;;17.45;15.75;;;;;;;;;;6244639;23;20058;-76
2022/08/24 01:02:08;;;;;;;19.02;17.13;;;;;;;;;;6244615;23;20004;-76
2022/08/24 01:04:37;;;;;;;18.02;16.33;;;;;;;;;;6244939;22;20007;-75
2022/08/24 01:07:04;;;;;;;18.40;16.60;;;;;;;;;;6244502;23;20015;-76
2022/08/24 01:09:30;;;;;;;20.17;17.00;;;;;;;;;;6244627;23;20011;-76
2022/08/24 01:11:57;;;;;;;19.55;17.67;;;;;;;;;;6244427;22;20031;-76
2022/08/24 01:14:23;;;;;;;19.10;16.90;;;;;;;;;;6244728;22;20004;-76
2022/08/24 01:19:42;;;;;;;18.02;16.23;;;;;;;;;;6244572;23;20015;-76
2022/08/24 01:22:27;;;;;;;19.10;17.10;;;;;;;;;;6243050;23;20389;-78
2022/08/24 01:24:53;;;;;;;20.05;18.08;;;;;;;;;;6244668;23;20071;-76
2022/08/24 01:27:20;;;;;;;19.30;17.30;;;;;;;;;;6244135;23;20390;-75
2022/08/24 01:29:47;;;;;;;19.23;17.35;;;;;;;;;;6244697;23;20482;-76
2022/08/24 01:32:13;;;;;;;19.25;17.23;;;;;;;;;;6244676;22;20000;-75
2022/08/24 01:34:40;;;;;;;19.05;17.10;;;;;;;;;;6244527;23;20011;-76
2022/08/24 01:37:07;;;;;;;19.42;17.48;;;;;;;;;;6244388;23;20428;-77
2022/08/24 01:39:36;;;;;;;19.60;17.50;;;;;;;;;;6244842;23;20010;-77
2022/08/24 01:42:02;;;;;;;20.13;17.70;;;;;;;;;;6246397;23;20011;-76
2022/08/24 01:44:30;;;;;;;19.30;17.38;;;;;;;;;;6246062;23;20011;-77
2022/08/24 01:46:56;;;;;;;20.05;17.13;;;;;;;;;;6246396;23;20007;-79
2022/08/24 01:49:24;;;;;;;18.63;16.77;;;;;;;;;;6245896;23;20000;-76
2022/08/24 01:51:50;;;;;;;19.23;16.73;;;;;;;;;;6246350;23;20439;-76
2022/08/24 01:54:16;;;;;;;17.67;15.65;;;;;;;;;;6246101;23;20005;-76
2022/08/24 01:56:43;;;;;;;19.02;17.13;;;;;;;;;;6246051;23;20018;-76
2022/08/24 01:59:10;;;;;;;19.15;17.25;;;;;;;;;;6246210;23;20013;-76
2022/08/24 02:01:37;;;;;;;19.48;17.58;;;;;;;;;;6246016;22;20012;-75
2022/08/24 02:04:05;;;;;;;19.60;17.58;;;;;;;;;;6246307;23;20004;-76
2022/08/24 02:06:32;;;;;;;19.83;17.90;;;;;;;;;;6245807;22;20011;-78
2022/08/24 02:08:58;;;;;;;19.70;17.77;;;;;;;;;;6246287;22;20008;-77
2022/08/24 02:11:24;;;;;;;19.15;17.15;;;;;;;;;;6245800;23;19996;-76
2022/08/24 02:13:51;;;;;;;18.73;16.92;;;;;;;;;;6246141;23;20087;-76
2022/08/24 02:16:17;;;;;;;18.77;16.85;;;;;;;;;;6245684;22;20012;-77
2022/08/24 02:18:44;;;;;;;19.13;17.13;;;;;;;;;;6245940;23;20027;-78
2022/08/24 02:21:11;;;;;;;20.70;18.63;;;;;;;;;;6246068;23;20004;-76
2022/08/24 02:23:38;;;;;;;20.83;18.63;;;;;;;;;;6245691;23;20010;-75
2022/08/24 02:26:05;;;;;;;19.05;16.98;;;;;;;;;;6245791;23;20324;-76
2022/08/24 02:28:31;;;;;;;20.13;18.13;;;;;;;;;;6245721;23;20012;-75
2022/08/24 02:30:57;;;;;;;21.20;19.00;;;;;;;;;;6246105;23;20435;-77
2022/08/24 02:33:23;;;;;;;19.75;17.75;;;;;;;;;;6245641;23;20000;-76
2022/08/24 02:35:50;;;;;;;20.75;18.20;;;;;;;;;;6245839;23;20012;-77
2022/08/24 02:38:16;;;;;;;20.65;18.58;;;;;;;;;;6245744;23;20010;-77
2022/08/24 02:40:42;;;;;;;20.75;18.60;;;;;;;;;;6245701;23;20028;-77
2022/08/24 02:43:09;;;;;;;21.05;18.95;;;;;;;;;;6245878;23;20331;-76
2022/08/24 02:45:39;;;;;;;22.45;20.25;;;;;;;;;;6245451;23;20005;-76
2022/08/24 02:48:05;;;;;;;21.92;19.70;;;;;;;;;;6245637;23;20005;-76
2022/08/24 02:50:31;;;;;;;20.70;18.50;;;;;;;;;;6245172;23;20079;-76
2022/08/24 02:52:57;;;;;;;21.55;19.27;;;;;;;;;;6245720;23;20069;-76
2022/08/24 02:55:24;;;;;;;20.92;18.58;;;;;;;;;;6245192;23;20019;-76
2022/08/24 02:57:50;;;;;;;21.17;18.95;;;;;;;;;;6245779;23;20332;-76
2022/08/24 03:00:18;;;;;;;20.60;18.15;;;;;;;;;;6245715;22;19996;-76
2022/08/24 03:02:44;;;;;;;20.80;18.80;;;;;;;;;;6245421;22;20004;-76
2022/08/24 03:05:10;;;;;;;20.23;18.15;;;;;;;;;;6245617;22;20004;-76
2022/08/24 03:07:37;;;;;;;21.20;18.98;;;;;;;;;;6243558;23;20371;-77
2022/08/24 03:10:04;;;;;;;19.77;17.77;;;;;;;;;;6245456;23;20489;-76
2022/08/24 03:12:30;;;;;;;20.38;18.05;;;;;;;;;;6245133;23;20004;-76
2022/08/24 03:14:56;;;;;;;20.55;18.45;;;;;;;;;;6245483;23;20391;-75
2022/08/24 03:17:23;;;;;;;21.75;19.48;;;;;;;;;;6245243;23;20019;-75
2022/08/24 03:19:49;;;;;;;21.75;19.20;;;;;;;;;;6245258;23;20008;-76
2022/08/24 03:22:16;;;;;;;20.58;18.40;;;;;;;;;;6245268;23;20008;-76
2022/08/24 03:24:42;;;;;;;22.70;20.30;;;;;;;;;;6245069;22;20004;-77
2022/08/24 03:27:08;;;;;;;20.25;18.25;;;;;;;;;;6245327;23;20489;-76
2022/08/24 03:29:35;;;;;;;22.30;20.00;;;;;;;;;;6245095;23;20040;-76
2022/08/24 03:32:01;;;;;;;21.52;19.10;;;;;;;;;;6245398;22;20004;-77
2022/08/24 03:34:27;;;;;;;20.65;18.48;;;;;;;;;;6245210;23;20363;-80
2022/08/24 03:36:53;;;;;;;18.80;16.88;;;;;;;;;;6245003;23;20008;-76
2022/08/24 03:39:19;;;;;;;20.58;18.48;;;;;;;;;;6245275;23;20004;-78
2022/08/24 03:41:45;;;;;;;22.17;19.98;;;;;;;;;;6244864;23;20004;-77
2022/08/24 03:44:11;;;;;;;22.15;17.95;;;;;;;;;;6245285;23;20012;-76
2022/08/24 03:46:38;;;;;;;20.27;18.17;;;;;;;;;;6245012;23;20083;-77
2022/08/24 03:49:07;;;;;;;21.98;19.73;;;;;;;;;;6245359;23;20438;-76
2022/08/24 03:51:34;;;;;;;20.83;18.63;;;;;;;;;;6245075;22;20050;-76
2022/08/24 03:54:00;;;;;;;20.77;18.58;;;;;;;;;;6245275;22;20324;-76
2022/08/24 03:56:27;;;;;;;19.75;17.50;;;;;;;;;;6244892;23;20058;-76
2022/08/24 03:58:56;;;;;;;21.13;18.63;;;;;;;;;;6245096;23;20050;-77
2022/08/24 04:01:22;;;;;;;21.67;19.42;;;;;;;;;;6246380;23;20468;-78
2022/08/24 04:03:49;;;;;;;20.88;18.77;;;;;;;;;;6244434;23;20011;-76
2022/08/24 04:06:17;;;;;;;22.65;19.83;;;;;;;;;;6243467;23;20301;-77
2022/08/24 04:08:43;;;;;;;21.85;19.50;;;;;;;;;;6244843;22;20004;-76
2022/08/24 04:11:11;;;;;;;21.80;19.65;;;;;;;;;;6245168;23;20075;-76
2022/08/24 04:13:37;;;;;;;24.38;21.77;;;;;;;;;;6244629;23;20004;-77
2022/08/24 04:16:04;;;;;;;25.95;23.05;;;;;;;;;;6245006;23;20016;-77
2022/08/24 04:18:30;;;;;;;22.23;19.98;;;;;;;;;;6244953;23;20038;-77
2022/08/24 04:20:56;;;;;;;22.35;20.08;;;;;;;;;;6244805;23;20007;-77
2022/08/24 04:23:22;;;;;;;19.63;17.60;;;;;;;;;;6244974;23;20066;-76
2022/08/24 04:25:48;;;;;;;20.55;18.45;;;;;;;;;;6242733;23;20000;-76
2022/08/24 04:28:20;;;;;;;21.17;18.98;;;;;;;;;;6244888;23;20051;-76
2022/08/24 04:30:50;;;;;;;22.77;20.38;;;;;;;;;;6244518;22;20000;-77
2022/08/24 04:33:17;;;;;;;19.52;17.52;;;;;;;;;;6244951;23;20067;-76
2022/08/24 04:35:45;;;;;;;20.00;17.85;;;;;;;;;;6244574;23;20324;-79
2022/08/24 04:38:12;;;;;;;20.77;18.65;;;;;;;;;;6244905;22;20374;-77
2022/08/24 04:40:39;;;;;;;21.67;19.42;;;;;;;;;;6244636;22;20363;-77
2022/08/24 04:43:05;;;;;;;21.10;18.83;;;;;;;;;;6244885;23;20355;-77
2022/08/24 04:45:32;;;;;;;21.30;19.20;;;;;;;;;;6244806;23;20023;-77
2022/08/24 04:47:59;;;;;;;21.50;19.13;;;;;;;;;;6245057;22;20362;-78
2022/08/24 04:50:25;;;;;;;23.48;19.48;;;;;;;;;;6244907;23;20011;-78
2022/08/24 04:52:51;;;;;;;21.30;19.10;;;;;;;;;;6244473;23;20015;-77
2022/08/24 04:55:17;;;;;;;20.27;18.27;;;;;;;;;;6244934;23;20075;-77
2022/08/24 04:57:44;;;;;;;20.40;18.30;;;;;;;;;;6244411;23;20084;-78
2022/08/24 05:00:10;;;;;;;21.95;19.65;;;;;;;;;;6244746;23;20008;-77
2022/08/24 05:02:40;;;;;;;20.60;18.42;;;;;;;;;;6244470;22;20000;-76
2022/08/24 05:05:07;;;;;;;19.10;17.27;;;;;;;;;;6244788;23;20007;-76
2022/08/24 05:07:33;;;;;;;19.35;17.20;;;;;;;;;;6244318;23;20428;-77
2022/08/24 05:09:59;;;;;;;18.65;16.63;;;;;;;;;;6244417;23;20000;-78
2022/08/24 05:12:26;;;;;;;18.13;16.33;;;;;;;;;;6244631;23;20000;-77
2022/08/24 05:14:52;;;;;;;16.52;14.82;;;;;;;;;;6244921;22;20008;-77
2022/08/24 05:17:18;;;;;;;17.45;15.65;;;;;;;;;;6246373;23;20004;-77
2022/08/24 05:19:44;;;;;;;17.55;15.75;;;;;;;;;;6246019;23;20004;-76
2022/08/24 05:22:10;;;;;;;17.35;15.15;;;;;;;;;;6245000;23;20011;-70
2022/08/24 05:24:36;;;;;;;17.27;15.57;;;;;;;;;;6245742;23;20031;-77
2022/08/24 05:27:02;;;;;;;18.08;16.25;;;;;;;;;;6244249;23;20053;-77
2022/08/24 05:29:32;;;;;;;18.02;16.13;;;;;;;;;;6246363;23;20005;-77
2022/08/24 05:31:58;;;;;;;16.77;15.07;;;;;;;;;;6236952;23;20355;-76
2022/08/24 05:34:24;;;;;;;18.55;16.83;;;;;;;;;;6241503;23;20000;-77
2022/08/24 05:36:51;;;;;;;17.40;15.77;;;;;;;;;;6242800;23;20016;-78
2022/08/24 05:39:17;;;;;;;16.13;14.55;;;;;;;;;;6244000;23;20014;-78
2022/08/24 05:41:44;;;;;;;17.05;15.25;;;;;;;;;;6242798;23;20000;-77
2022/08/24 05:44:10;;;;;;;16.80;15.07;;;;;;;;;;6240837;23;20596;-77
2022/08/24 05:46:37;;;;;;;15.10;13.65;;;;;;;;;;6243884;23;20016;-78
2022/08/24 05:49:04;;;;;;;16.15;14.45;;;;;;;;;;6243345;23;20034;-76
2022/08/24 05:51:31;;;;;;;16.48;14.90;;;;;;;;;;6244204;23;20312;-76
2022/08/24 05:53:58;;;;;;;14.80;13.43;;;;;;;;;;6239842;23;20004;-76
2022/08/24 05:56:24;;;;;;;15.32;13.25;;;;;;;;;;6243384;22;20427;-77
2022/08/24 05:58:50;;;;;;;16.15;14.52;;;;;;;;;;6244194;23;20000;-75
2022/08/24 06:01:20;;;;;;;15.40;13.93;;;;;;;;;;6244403;23;20424;-76
2022/08/24 06:03:47;;;;;;;14.10;12.80;;;;;;;;;;6241982;23;20332;-76
2022/08/24 06:06:14;;;;;;;14.38;12.88;;;;;;;;;;6244531;23;20423;-76
2022/08/24 06:08:42;;;;;;;15.48;13.88;;;;;;;;;;6242763;23;20427;-76
2022/08/24 06:11:08;;;;;;;17.15;15.55;;;;;;;;;;6244044;23;20431;-75
2022/08/24 06:13:34;;;;;;;16.48;14.82;;;;;;;;;;6243994;23;20004;-76
2022/08/24 06:16:09;;;;;;;16.23;14.73;;;;;;;;;;6243352;23;20115;-76
2022/08/24 06:18:36;;;;;;;15.30;13.80;;;;;;;;;;6241346;22;20090;-76
2022/08/24 06:21:06;;;;;;;15.02;13.50;;;;;;;;;;6243816;22;20051;-75
2022/08/24 06:23:33;;;;;;;14.80;13.38;;;;;;;;;;6243401;23;20769;-75
2022/08/24 06:28:44;;;;;;;14.30;12.85;;;;;;;;;;6242695;23;20513;-75
2022/08/24 06:31:10;;;;;;;14.98;13.50;;;;;;;;;;6242677;23;20051;-75
2022/08/24 06:33:36;;;;;;;14.48;13.05;;;;;;;;;;6242675;23;20008;-76
2022/08/24 06:36:02;;;;;;;15.70;14.10;;;;;;;;;;6242089;23;20055;-76
2022/08/24 06:38:29;;;;;;;15.00;13.50;;;;;;;;;;6242950;23;20519;-76
2022/08/24 06:40:56;;;;;;;15.75;14.20;;;;;;;;;;6243301;22;20004;-76
2022/08/24 06:43:23;;;;;;;14.57;13.27;;;;;;;;;;6243513;23;20008;-79
2022/08/24 06:45:49;;;;;;;15.45;13.80;;;;;;;;;;6242570;23;20134;-75
2022/08/24 06:48:16;;;;;;;16.23;14.57;;;;;;;;;;6242370;23;20036;-76
2022/08/24 06:50:42;;;;;;;15.77;14.27;;;;;;;;;;6243465;23;20003;-74
2022/08/24 06:53:08;;;;;;;14.27;12.80;;;;;;;;;;6244605;23;20083;-76
2022/08/24 06:55:34;;;;;;;14.65;13.25;;;;;;;;;;6241781;23;20008;-75
2022/08/24 06:58:01;;;;;;;14.27;13.02;;;;;;;;;;6243841;23;20069;-79
2022/08/24 07:00:28;;;;;;;13.00;11.70;;;;;;;;;;6242949;22;20027;-79
2022/08/24 07:02:54;;;;;;;12.98;11.57;;;;;;;;;;6243256;22;20355;-75
2022/08/24 07:05:21;;;;;;;13.50;12.20;;;;;;;;;;6243288;23;20031;-78
2022/08/24 07:07:47;;;;;;;12.63;11.32;;;;;;;;;;6244018;23;20004;-76
2022/08/24 07:10:13;;;;;;;12.25;11.05;;;;;;;;;;6243234;22;20027;-77
2022/08/24 07:12:39;;;;;;;13.38;11.98;;;;;;;;;;6242918;23;20011;-76
2022/08/24 07:15:06;;;;;;;11.98;10.77;;;;;;;;;;6243467;23;20004;-78
2022/08/24 07:17:32;;;;;;;11.48;10.38;;;;;;;;;;6243794;23;20019;-76
2022/08/24 07:19:58;;;;;;;12.45;11.15;;;;;;;;;;6242850;23;20008;-80
2022/08/24 07:22:24;;;;;;;12.70;11.60;;;;;;;;;;6243625;23;20331;-76
2022/08/24 07:24:50;;;;;;;11.05;9.93;;;;;;;;;;6243010;23;20008;-76
2022/08/24 07:27:16;;;;;;;11.82;10.63;;;;;;;;;;6243765;23;20018;-76
2022/08/24 07:29:42;;;;;;;10.85;9.80;;;;;;;;;;6241874;22;20016;-78
2022/08/24 07:32:09;;;;;;;12.30;11.05;;;;;;;;;;6243120;23;20054;-76
2022/08/24 07:34:36;;;;;;;14.73;13.35;;;;;;;;;;6243759;22;20034;-76
2022/08/24 07:37:02;;;;;;;10.80;9.80;;;;;;;;;;6243072;22;20020;-78
2022/08/24 07:39:29;;;;;;;12.65;10.18;;;;;;;;;;6242976;23;20004;-77
2022/08/24 07:41:58;;;;;;;12.45;11.00;;;;;;;;;;6242073;23;20103;-76
2022/08/24 07:44:25;;;;;;;12.30;11.10;;;;;;;;;;6243358;23;20007;-76
2022/08/24 07:46:51;;;;;;;12.25;11.00;;;;;;;;;;6243101;23;20008;-76
2022/08/24 07:49:17;;;;;;;11.68;10.60;;;;;;;;;;6240021;23;20336;-78
2022/08/24 07:51:43;;;;;;;10.13;9.13;;;;;;;;;;6243367;22;20004;-77
2022/08/24 07:54:10;;;;;;;11.07;10.05;;;;;;;;;;6244032;23;20075;-77
2022/08/24 07:56:36;;;;;;;9.98;8.98;;;;;;;;;;6243108;22;20546;-76
2022/08/24 07:59:02;;;;;;;10.45;9.40;;;;;;;;;;6241497;23;20012;-75
2022/08/24 08:01:28;;;;;;;10.55;9.55;;;;;;;;;;6242707;23;20000;-75
2022/08/24 08:03:54;;;;;;;10.40;9.45;;;;;;;;;;6243084;23;20007;-77
2022/08/24 08:06:20;;;;;;;9.75;8.88;;;;;;;;;;6243846;23;20115;-75
2022/08/24 08:08:46;;;;;;;10.18;9.27;;;;;;;;;;6241905;23;20010;-77
2022/08/24 08:11:13;;;;;;;10.30;9.30;;;;;;;;;;6242159;23;20039;-76
2022/08/24 08:13:39;;;;;;;10.02;8.65;;;;;;;;;;6242176;22;20019;-76
2022/08/24 08:16:05;;;;;;;8.55;7.85;;;;;;;;;;6242524;23;20008;-75
2022/08/24 08:18:31;;;;;;;9.05;8.23;;;;;;;;;;6243527;23;20008;-75
2022/08/24 08:20:58;;;;;;;9.60;8.75;;;;;;;;;;6242085;23;20008;-75
2022/08/24 08:26:19;;;;;;;9.07;8.27;;;;;;;;;;6243196;23;20095;-75
2022/08/24 08:28:46;;;;;;;9.27;8.38;;;;;;;;;;6241499;23;20004;-76
2022/08/24 08:31:12;;;;;;;9.50;8.52;;;;;;;;;;6240546;23;20049;-76
2022/08/24 08:33:39;;;;;;;9.48;8.40;;;;;;;;;;6242006;23;20007;-76
2022/08/24 08:36:07;;;;;;;10.27;9.27;;;;;;;;;;6242200;22;20313;-76
2022/08/24 08:38:34;;;;;;;9.55;8.75;;;;;;;;;;6242570;22;20008;-77
2022/08/24 08:41:00;;;;;;;10.52;9.60;;;;;;;;;;6242801;23;20000;-76
2022/08/24 08:43:47;;;;;;;10.20;9.25;;;;;;;;;;6242829;23;20415;-76
2022/08/24 08:46:25;;;;;;;11.10;10.00;;;;;;;;;;6241855;22;20004;-76
2022/08/24 08:48:54;;;;;;;9.23;8.32;;;;;;;;;;6243134;23;20374;-76
2022/08/24 08:51:20;;;;;;;9.38;8.45;;;;;;;;;;6243687;23;20079;-77
2022/08/24 08:53:46;;;;;;;9.05;8.23;;;;;;;;;;6243661;23;20000;-75
2022/08/24 08:56:19;;;;;;;10.70;9.80;;;;;;;;;;6243748;23;20011;-77
2022/08/24 08:58:45;;;;;;;9.10;8.27;;;;;;;;;;6241951;23;20329;-76
2022/08/24 09:01:20;;;;;;;9.10;8.07;;;;;;;;;;6242031;22;20015;-78
2022/08/24 09:03:52;;;;;;;10.20;9.23;;;;;;;;;;6242382;23;20007;-77
2022/08/24 09:06:18;;;;;;;9.43;8.43;;;;;;;;;;6244447;23;20011;-76
2022/08/24 09:08:44;;;;;;;9.77;8.80;;;;;;;;;;6244899;23;20001;-77
2022/08/24 09:11:11;;;;;;;10.23;9.13;;;;;;;;;;6244906;23;20380;-76
2022/08/24 09:13:37;;;;;;;9.95;8.95;;;;;;;;;;6244683;22;20015;-76
2022/08/24 09:16:10;;;;;;;11.02;10.00;;;;;;;;;;6244655;23;20019;-76
2022/08/24 09:18:55;;;;;;;9.63;8.83;;;;;;;;;;6244681;23;20004;-77
2022/08/24 09:21:34;;;;;;;9.40;8.57;;;;;;;;;;6243105;22;20014;-77
2022/08/24 09:24:00;;;;;;;9.55;8.65;;;;;;;;;;6243805;23;20004;-77
2022/08/24 09:26:32;;;;;;;9.60;8.75;;;;;;;;;;6244135;23;20351;-79
2022/08/24 09:29:04;;;;;;;9.65;8.68;;;;;;;;;;6244205;22;20008;-78
2022/08/24 09:31:37;;;;;;;9.20;8.35;;;;;;;;;;6243400;23;20031;-77
2022/08/24 09:34:04;;;;;;;9.48;8.48;;;;;;;;;;6243016;22;20339;-77
2022/08/24 09:36:42;;;;;;;9.65;8.68;;;;;;;;;;6242951;22;20008;-76
2022/08/24 09:39:21;;;;;;;10.00;9.10;;;;;;;;;;6244438;23;20079;-78
2022/08/24 09:42:06;;;;;;;9.27;8.43;;;;;;;;;;6244987;23;20377;-78
2022/08/24 09:44:50;;;;;;;10.02;8.70;;;;;;;;;;6243877;23;20019;-78
2022/08/24 09:47:25;;;;;;;9.55;8.60;;;;;;;;;;6244487;23;20004;-79
2022/08/24 09:50:07;;;;;;;9.93;8.55;;;;;;;;;;6244838;23;20527;-76
2022/08/24 09:52:52;;;;;;;10.30;8.88;;;;;;;;;;6243893;23;20007;-77
2022/08/24 09:55:21;;;;;;;9.48;8.57;;;;;;;;;;6244037;23;20011;-76
2022/08/24 09:58:05;;;;;;;9.63;8.73;;;;;;;;;;6242935;23;20008;-76
2022/08/24 10:00:50;;;;;;;9.88;9.05;;;;;;;;;;6242959;23;20008;-77
2022/08/24 10:03:35;;;;;;;9.13;8.32;;;;;;;;;;6242853;23;20011;-77
2022/08/24 10:06:17;;;;;;;8.80;8.02;;;;;;;;;;6244901;23;20463;-77
2022/08/24 10:08:43;;;;;;;9.80;8.85;;;;;;;;;;6243840;23;20075;-77
2022/08/24 10:11:25;;;;;;;9.95;8.90;;;;;;;;;;6243251;23;20402;-76
2022/08/24 10:14:03;;;;;;;9.35;8.55;;;;;;;;;;6241731;23;20270;-76
2022/08/24 10:16:39;;;;;;;10.02;9.10;;;;;;;;;;6240419;23;20023;-77
2022/08/24 10:19:05;;;;;;;8.75;8.00;;;;;;;;;;6242755;23;20004;-77
2022/08/24 10:21:39;;;;;;;9.13;8.20;;;;;;;;;;6242567;23;19996;-76
2022/08/24 10:24:24;;;;;;;9.23;8.32;;;;;;;;;;6242783;23;20335;-77
2022/08/24 10:27:03;;;;;;;8.75;7.97;;;;;;;;;;6241816;23;20356;-76
2022/08/24 10:29:29;;;;;;;9.18;8.38;;;;;;;;;;6243127;23;20027;-78
2022/08/24 10:31:58;;;;;;;9.05;8.25;;;;;;;;;;6242037;23;20011;-76
2022/08/24 10:34:28;;;;;;;8.88;8.05;;;;;;;;;;6242987;23;20004;-77
2022/08/24 10:37:03;;;;;;;9.77;8.77;;;;;;;;;;6242715;23;20062;-77
2022/08/24 10:39:50;;;;;;;9.00;8.10;;;;;;;;;;6243776;23;20439;-74
2022/08/24 10:45:48;;;;;;;8.60;7.80;;;;;;;;;;6243144;23;20030;-75
2022/08/24 10:48:33;;;;;;;10.65;9.70;;;;;;;;;;6242163;22;20004;-74
2022/08/24 10:51:19;;;;;;;9.63;8.77;;;;;;;;;;6243575;23;19996;-76
2022/08/24 10:53:49;;;;;;;9.63;8.70;;;;;;;;;;6227283;22;20019;-74
2022/08/24 10:56:20;;;;;;;9.70;8.80;;;;;;;;;;6240843;22;20075;-74
2022/08/24 10:59:05;;;;;;;10.25;9.23;;;;;;;;;;6242404;23;20004;-75
2022/08/24 11:01:32;;;;;;;8.45;7.68;;;;;;;;;;6243505;23;20004;-75
2022/08/24 11:04:01;;;;;;;10.45;9.55;;;;;;;;;;6241133;22;20038;-74
2022/08/24 11:06:30;;;;;;;9.57;8.68;;;;;;;;;;6242950;23;20478;-75
2022/08/24 11:09:05;;;;;;;9.05;8.20;;;;;;;;;;6243269;22;20008;-74
2022/08/24 11:11:51;;;;;;;9.27;8.48;;;;;;;;;;6242384;23;20062;-76
2022/08/24 11:14:20;;;;;;;9.40;8.52;;;;;;;;;;6244191;22;20012;-76
2022/08/24 11:16:46;;;;;;;8.95;8.05;;;;;;;;;;6241700;23;20047;-76
2022/08/24 11:19:31;;;;;;;9.18;8.38;;;;;;;;;;6243313;23;20443;-78
2022/08/24 11:22:00;;;;;;;9.38;8.50;;;;;;;;;;6243664;23;20006;-80
2022/08/24 11:24:38;;;;;;;10.75;9.75;;;;;;;;;;6243131;22;20007;-78
2022/08/24 11:27:17;;;;;;;8.90;8.02;;;;;;;;;;6241780;22;20016;-75
2022/08/24 11:29:53;;;;;;;9.65;8.70;;;;;;;;;;6243170;23;20073;-73
2022/08/24 11:32:38;;;;;;;8.73;7.82;;;;;;;;;;6243500;22;20431;-72
2022/08/24 11:35:08;;;;;;;9.82;8.95;;;;;;;;;;6242613;23;20439;-74
2022/08/24 11:37:36;;;;;;;8.25;7.55;;;;;;;;;;6243562;23;20012;-74
2022/08/24 11:40:03;;;;;;;8.30;7.53;;;;;;;;;;6243844;23;20391;-74
2022/08/24 11:42:48;;;;;;;8.80;8.00;;;;;;;;;;6243076;22;20016;-76
2022/08/24 11:45:17;;;;;;;8.93;8.05;;;;;;;;;;6243171;23;20459;-75
2022/08/24 11:47:43;;;;;;;10.88;8.10;;;;;;;;;;6242831;23;20008;-74
2022/08/24 11:50:28;;;;;;;9.35;8.45;;;;;;;;;;6242617;23;20038;-75
2022/08/24 11:52:54;;;;;;;8.20;7.47;;;;;;;;;;6242373;22;20008;-76
2022/08/24 11:55:38;;;;;;;8.85;8.05;;;;;;;;;;6238588;23;20469;-77
2022/08/24 11:58:23;;;;;;;8.27;7.47;;;;;;;;;;6238811;22;20012;-73
2022/08/24 12:00:59;;;;;;;8.77;7.97;;;;;;;;;;6241694;22;20031;-75
2022/08/24 12:03:31;;;;;;;9.63;8.68;;;;;;;;;;6242906;23;20463;-75
2022/08/24 12:05:57;;;;;;;8.73;7.93;;;;;;;;;;6241944;23;20015;-74
2022/08/24 12:08:23;;;;;;;8.10;7.40;;;;;;;;;;6242415;23;20522;-74
2022/08/24 12:11:09;;;;;;;8.20;7.40;;;;;;;;;;6241162;23;20018;-74
2022/08/24 12:13:42;;;;;;;9.40;8.60;;;;;;;;;;6225808;22;20008;-78
2022/08/24 12:16:08;;;;;;;8.02;7.32;;;;;;;;;;6242379;23;20016;-77
2022/08/24 12:18:53;;;;;;;8.65;7.95;;;;;;;;;;6241859;23;20440;-76
2022/08/24 12:21:21;;;;;;;9.32;8.50;;;;;;;;;;6242089;22;20058;-75
2022/08/24 12:23:49;;;;;;;9.40;8.52;;;;;;;;;;6242577;22;20061;-74
2022/08/24 12:26:34;;;;;;;9.00;8.13;;;;;;;;;;6243213;23;20012;-76
2022/08/24 12:29:05;;;;;;;9.32;8.25;;;;;;;;;;6244802;22;20012;-76
2022/08/24 12:31:39;;;;;;;9.30;8.48;;;;;;;;;;6244663;22;20482;-77
2022/08/24 12:34:10;;;;;;;9.05;8.15;;;;;;;;;;6243632;23;20004;-75
2022/08/24 12:36:42;;;;;;;12.88;11.00;;;;;;;;;;6243823;23;20012;-74
2022/08/24 12:39:12;;;;;;;9.23;7.65;;;;;;;;;;6244564;23;20359;-74
2022/08/24 12:42:01;;;;;;;8.93;8.13;;;;;;;;;;6244327;23;20008;-74
2022/08/24 12:44:50;;;;;;;9.77;8.25;;;;;;;;;;6233108;22;20008;-77
2022/08/24 12:47:26;;;;;;;9.52;8.63;;;;;;;;;;6229754;22;20407;-76
2022/08/24 12:49:56;;;;;;;8.40;7.70;;;;;;;;;;6243925;23;20043;-75
2022/08/24 12:52:41;;;;;;;10.38;8.13;;;;;;;;;;6242873;23;20118;-74
2022/08/24 12:55:16;;;;;;;7.85;7.15;;;;;;;;;;6243152;23;20058;-75
2022/08/24 12:57:42;;;;;;;8.32;7.53;;;;;;;;;;6243422;23;20085;-75
2022/08/24 13:00:12;;;;;;;8.65;7.85;;;;;;;;;;6244683;23;20047;-74
2022/08/24 13:02:44;;;;;;;10.07;9.07;;;;;;;;;;6244198;23;20079;-74
2022/08/24 13:05:15;;;;;;;9.60;8.40;;;;;;;;;;6244781;22;20018;-74
2022/08/24 13:07:45;;;;;;;9.60;8.60;;;;;;;;;;6245058;23;20004;-80
2022/08/24 13:10:30;;;;;;;9.57;8.48;;;;;;;;;;6244204;23;20058;-75
2022/08/24 13:13:09;;;;;;;9.73;8.80;;;;;;;;;;6244547;22;20380;-76
2022/08/24 13:15:35;;;;;;;9.50;7.88;;;;;;;;;;6244851;22;20000;-74
2022/08/24 13:18:13;;;;;;;11.00;10.05;;;;;;;;;;6243639;23;20011;-78
2022/08/24 13:20:42;;;;;;;9.50;8.60;;;;;;;;;;6244696;23;20011;-75
2022/08/24 13:23:08;;;;;;;10.18;9.30;;;;;;;;;;6244235;23;20083;-74
2022/08/24 13:25:37;;;;;;;9.48;8.57;;;;;;;;;;6244162;23;20038;-75
2022/08/24 13:28:06;;;;;;;9.35;7.95;;;;;;;;;;6244402;23;20016;-75
2022/08/24 13:30:35;;;;;;;9.85;8.60;;;;;;;;;;6244673;23;20004;-73
2022/08/24 13:33:06;;;;;;;9.18;8.27;;;;;;;;;;6243980;23;20428;-77
2022/08/24 13:35:41;;;;;;;10.77;9.27;;;;;;;;;;6245074;23;20447;-76
2022/08/24 13:38:26;;;;;;;9.77;8.82;;;;;;;;;;6245755;23;20509;-75
2022/08/24 13:40:58;;;;;;;9.93;8.88;;;;;;;;;;6245731;23;20057;-76
2022/08/24 13:43:48;;;;;;;9.75;8.80;;;;;;;;;;6247023;23;20000;-75
2022/08/24 13:46:14;;;;;;;10.13;9.10;;;;;;;;;;6244848;23;20027;-76
2022/08/24 13:48:55;;;;;;;10.45;9.55;;;;;;;;;;6246241;23;20004;-75
2022/08/24 13:51:24;;;;;;;10.55;9.48;;;;;;;;;;6246223;23;20008;-76
2022/08/24 13:53:57;;;;;;;10.35;9.35;;;;;;;;;;6245838;23;20008;-75
2022/08/24 13:56:23;;;;;;;9.93;9.02;;;;;;;;;;6246194;23;20371;-76
2022/08/24 13:58:55;;;;;;;10.27;9.27;;;;;;;;;;6246662;23;20434;-79
2022/08/24 14:01:40;;;;;;;11.70;10.40;;;;;;;;;;6245891;23;20059;-78
2022/08/24 14:04:09;;;;;;;10.48;9.48;;;;;;;;;;6246218;22;20023;-76
2022/08/24 14:06:38;;;;;;;10.77;9.77;;;;;;;;;;6246315;23;20015;-77
2022/08/24 14:09:34;;;;;;;10.45;9.45;;;;;;;;;;6245949;23;20000;-75
2022/08/24 14:12:08;;;;;;;12.00;10.80;;;;;;;;;;6226544;22;20004;-80
2022/08/24 14:14:53;;;;;;;10.88;9.85;;;;;;;;;;6245752;23;20011;-76
2022/08/24 14:20:16;;;;;;;11.02;9.95;;;;;;;;;;6245950;23;20094;-76
2022/08/24 14:23:00;;;;;;;11.48;10.10;;;;;;;;;;6245791;22;20467;-76
2022/08/24 14:25:31;;;;;;;11.50;10.38;;;;;;;;;;6245412;23;20026;-76
2022/08/24 14:27:57;;;;;;;11.45;10.30;;;;;;;;;;6245755;22;20024;-75
2022/08/24 14:30:23;;;;;;;11.35;10.25;;;;;;;;;;6245401;23;20000;-75
2022/08/24 14:32:58;;;;;;;10.73;9.73;;;;;;;;;;6245648;23;20018;-76
2022/08/24 14:35:29;;;;;;;10.57;9.43;;;;;;;;;;6243924;23;20407;-76
2022/08/24 14:37:58;;;;;;;10.15;9.25;;;;;;;;;;6245295;22;20093;-77
2022/08/24 14:40:42;;;;;;;9.82;8.82;;;;;;;;;;6246262;23;20008;-75
2022/08/24 14:43:23;;;;;;;9.05;8.15;;;;;;;;;;6243512;23;20328;-75
2022/08/24 14:46:08;;;;;;;9.25;8.35;;;;;;;;;;6245933;23;20014;-77
2022/08/24 14:48:53;;;;;;;8.32;7.53;;;;;;;;;;6246136;23;20057;-75
2022/08/24 14:51:37;;;;;;;9.77;8.85;;;;;;;;;;6245658;23;20000;-77
2022/08/24 14:54:14;;;;;;;10.02;9.05;;;;;;;;;;6246330;23;20000;-77
2022/08/24 14:56:58;;;;;;;10.05;9.05;;;;;;;;;;6246104;22;20020;-75